Meadville, Pennsylvania
Current Conditions -  °F | °C
As of 9:53 PM on Friday 21 Nov 2014 (Local Time) from KGKJ Reporting Station
Clear Clear  
Wind Chill:   Ceiling: Unl
Heat Index: 17°   Visibility: 10mi
Dew Point:   Wind: 6mph
Humidity: 65%   Direction: 180°S
Pressure: 30.39"   Gusts: NA
Location:  41.64°N, 80.15°W
Report Text: KGKJ 220253Z AUTO 18005KT 10SM CLR M08/M14 A3039 RMK AO2 SLP315 T10831139 56012 TSNO
Loading
Personal Weather Stations






























Interactive Weather Map New forecast layout! Learn more

10-Day Weather Forecast

Advertisements
Track Severe Weather on mobile